sensor_id;sensor_type;location;lat;lon;timestamp;P1;durP1;ratioP1;P2;durP2;ratioP2
76795;SDS011;65745;50.278;18.192;2023-04-03T00:00:37;6.70;;;4.30;;
76795;SDS011;65745;50.278;18.192;2023-04-03T00:03:17;5.60;;;3.70;;
76795;SDS011;65745;50.278;18.192;2023-04-03T00:05:49;7.20;;;3.60;;
76795;SDS011;65745;50.278;18.192;2023-04-03T00:08:22;8.60;;;4.00;;
76795;SDS011;65745;50.278;18.192;2023-04-03T00:10:54;6.90;;;4.20;;
76795;SDS011;65745;50.278;18.192;2023-04-03T00:13:27;5.60;;;3.40;;
76795;SDS011;65745;50.278;18.192;2023-04-03T00:15:59;8.40;;;4.90;;
76795;SDS011;65745;50.278;18.192;2023-04-03T00:18:32;6.90;;;3.60;;
76795;SDS011;65745;50.278;18.192;2023-04-03T00:21:05;7.50;;;4.00;;
76795;SDS011;65745;50.278;18.192;2023-04-03T00:23:38;6.60;;;3.70;;
76795;SDS011;65745;50.278;18.192;2023-04-03T00:26:10;4.80;;;2.90;;
76795;SDS011;65745;50.278;18.192;2023-04-03T00:28:43;4.90;;;3.70;;
76795;SDS011;65745;50.278;18.192;2023-04-03T00:31:15;4.70;;;3.10;;
76795;SDS011;65745;50.278;18.192;2023-04-03T00:33:48;7.10;;;3.80;;
76795;SDS011;65745;50.278;18.192;2023-04-03T00:36:20;7.90;;;3.60;;
76795;SDS011;65745;50.278;18.192;2023-04-03T00:38:52;6.30;;;3.10;;
76795;SDS011;65745;50.278;18.192;2023-04-03T00:41:25;7.60;;;3.70;;
76795;SDS011;65745;50.278;18.192;2023-04-03T00:43:57;5.30;;;3.20;;
76795;SDS011;65745;50.278;18.192;2023-04-03T00:46:29;6.50;;;2.90;;
76795;SDS011;65745;50.278;18.192;2023-04-03T00:49:02;5.70;;;3.60;;
76795;SDS011;65745;50.278;18.192;2023-04-03T00:51:34;6.00;;;4.00;;
76795;SDS011;65745;50.278;18.192;2023-04-03T00:54:06;7.00;;;3.20;;
76795;SDS011;65745;50.278;18.192;2023-04-03T00:56:39;6.50;;;3.40;;
76795;SDS011;65745;50.278;18.192;2023-04-03T00:59:13;6.90;;;3.40;;
76795;SDS011;65745;50.278;18.192;2023-04-03T01:01:51;5.10;;;3.20;;
76795;SDS011;65745;50.278;18.192;2023-04-03T01:04:28;5.90;;;3.40;;
76795;SDS011;65745;50.278;18.192;2023-04-03T01:07:03;7.20;;;3.10;;
76795;SDS011;65745;50.278;18.192;2023-04-03T01:09:38;6.70;;;3.00;;
76795;SDS011;65745;50.278;18.192;2023-04-03T01:12:15;3.80;;;2.70;;
76795;SDS011;65745;50.278;18.192;2023-04-03T01:14:51;5.90;;;2.90;;
76795;SDS011;65745;50.278;18.192;2023-04-03T01:17:29;5.00;;;2.80;;
76795;SDS011;65745;50.278;18.192;2023-04-03T01:20:11;4.70;;;3.50;;
76795;SDS011;65745;50.278;18.192;2023-04-03T01:23:14;6.20;;;3.00;;
76795;SDS011;65745;50.278;18.192;2023-04-03T01:26:00;6.20;;;3.30;;
76795;SDS011;65745;50.278;18.192;2023-04-03T01:28:35;4.20;;;2.60;;
76795;SDS011;65745;50.278;18.192;2023-04-03T01:31:10;5.60;;;2.60;;
76795;SDS011;65745;50.278;18.192;2023-04-03T01:33:49;5.10;;;3.30;;
76795;SDS011;65745;50.278;18.192;2023-04-03T01:36:23;5.90;;;3.00;;
76795;SDS011;65745;50.278;18.192;2023-04-03T01:38:57;6.60;;;2.90;;
76795;SDS011;65745;50.278;18.192;2023-04-03T01:41:30;6.90;;;2.90;;
76795;SDS011;65745;50.278;18.192;2023-04-03T01:44:09;4.70;;;2.20;;
76795;SDS011;65745;50.278;18.192;2023-04-03T01:46:42;4.40;;;2.50;;
76795;SDS011;65745;50.278;18.192;2023-04-03T01:49:14;4.40;;;2.50;;
76795;SDS011;65745;50.278;18.192;2023-04-03T01:51:46;4.00;;;2.10;;
76795;SDS011;65745;50.278;18.192;2023-04-03T01:54:18;5.10;;;2.40;;
76795;SDS011;65745;50.278;18.192;2023-04-03T01:56:50;6.50;;;3.20;;
76795;SDS011;65745;50.278;18.192;2023-04-03T01:59:23;6.50;;;3.00;;
76795;SDS011;65745;50.278;18.192;2023-04-03T02:01:55;4.00;;;2.20;;
76795;SDS011;65745;50.278;18.192;2023-04-03T02:04:27;4.70;;;2.70;;
76795;SDS011;65745;50.278;18.192;2023-04-03T02:06:59;5.40;;;3.00;;
76795;SDS011;65745;50.278;18.192;2023-04-03T02:09:31;3.50;;;2.20;;
76795;SDS011;65745;50.278;18.192;2023-04-03T02:12:04;6.20;;;3.00;;
76795;SDS011;65745;50.278;18.192;2023-04-03T02:14:36;5.90;;;3.10;;
76795;SDS011;65745;50.278;18.192;2023-04-03T02:17:13;8.20;;;3.00;;
76795;SDS011;65745;50.278;18.192;2023-04-03T02:19:45;5.90;;;2.80;;
76795;SDS011;65745;50.278;18.192;2023-04-03T02:22:17;4.20;;;2.70;;
76795;SDS011;65745;50.278;18.192;2023-04-03T02:24:49;4.30;;;2.60;;
76795;SDS011;65745;50.278;18.192;2023-04-03T02:27:22;5.50;;;2.90;;
76795;SDS011;65745;50.278;18.192;2023-04-03T02:29:54;5.10;;;2.40;;
76795;SDS011;65745;50.278;18.192;2023-04-03T02:32:26;5.60;;;3.00;;
76795;SDS011;65745;50.278;18.192;2023-04-03T02:34:59;4.70;;;2.80;;
76795;SDS011;65745;50.278;18.192;2023-04-03T02:37:31;8.80;;;3.00;;
76795;SDS011;65745;50.278;18.192;2023-04-03T02:40:05;5.80;;;2.50;;
76795;SDS011;65745;50.278;18.192;2023-04-03T02:42:38;4.90;;;2.80;;
76795;SDS011;65745;50.278;18.192;2023-04-03T02:45:10;7.80;;;2.80;;
76795;SDS011;65745;50.278;18.192;2023-04-03T02:47:43;5.60;;;2.90;;
76795;SDS011;65745;50.278;18.192;2023-04-03T02:50:15;5.30;;;2.60;;
76795;SDS011;65745;50.278;18.192;2023-04-03T02:52:47;4.50;;;2.80;;
76795;SDS011;65745;50.278;18.192;2023-04-03T02:55:19;5.10;;;2.90;;
76795;SDS011;65745;50.278;18.192;2023-04-03T02:57:52;29.40;;;9.80;;
76795;SDS011;65745;50.278;18.192;2023-04-03T03:00:24;46.80;;;15.30;;
76795;SDS011;65745;50.278;18.192;2023-04-03T03:02:56;62.30;;;15.60;;
76795;SDS011;65745;50.278;18.192;2023-04-03T03:05:29;70.20;;;16.80;;
76795;SDS011;65745;50.278;18.192;2023-04-03T03:08:01;49.50;;;14.80;;
76795;SDS011;65745;50.278;18.192;2023-04-03T03:10:33;60.00;;;15.30;;
76795;SDS011;65745;50.278;18.192;2023-04-03T03:13:06;64.30;;;17.60;;
76795;SDS011;65745;50.278;18.192;2023-04-03T03:15:38;65.20;;;19.40;;
76795;SDS011;65745;50.278;18.192;2023-04-03T03:18:10;84.90;;;23.00;;
76795;SDS011;65745;50.278;18.192;2023-04-03T03:20:42;58.50;;;16.70;;
76795;SDS011;65745;50.278;18.192;2023-04-03T03:23:15;56.10;;;19.10;;
76795;SDS011;65745;50.278;18.192;2023-04-03T03:25:47;79.60;;;29.80;;
76795;SDS011;65745;50.278;18.192;2023-04-03T03:28:19;85.00;;;29.70;;
76795;SDS011;65745;50.278;18.192;2023-04-03T03:30:51;63.10;;;25.70;;
76795;SDS011;65745;50.278;18.192;2023-04-03T03:33:24;58.20;;;23.70;;
76795;SDS011;65745;50.278;18.192;2023-04-03T03:35:57;82.20;;;32.80;;
76795;SDS011;65745;50.278;18.192;2023-04-03T03:38:30;30.30;;;14.60;;
76795;SDS011;65745;50.278;18.192;2023-04-03T03:41:03;57.30;;;24.10;;
76795;SDS011;65745;50.278;18.192;2023-04-03T03:43:36;63.20;;;28.20;;
76795;SDS011;65745;50.278;18.192;2023-04-03T03:46:08;29.90;;;13.10;;
76795;SDS011;65745;50.278;18.192;2023-04-03T03:48:40;24.10;;;13.30;;
76795;SDS011;65745;50.278;18.192;2023-04-03T03:51:13;22.10;;;10.60;;
76795;SDS011;65745;50.278;18.192;2023-04-03T03:53:45;24.50;;;11.20;;
76795;SDS011;65745;50.278;18.192;2023-04-03T03:56:19;15.50;;;6.50;;
76795;SDS011;65745;50.278;18.192;2023-04-03T03:58:52;10.20;;;5.60;;
76795;SDS011;65745;50.278;18.192;2023-04-03T04:01:25;9.30;;;6.20;;
76795;SDS011;65745;50.278;18.192;2023-04-03T04:04:00;9.00;;;5.50;;
76795;SDS011;65745;50.278;18.192;2023-04-03T04:06:32;8.50;;;4.30;;
76795;SDS011;65745;50.278;18.192;2023-04-03T04:09:06;7.20;;;4.20;;
76795;SDS011;65745;50.278;18.192;2023-04-03T04:11:39;6.70;;;3.70;;
76795;SDS011;65745;50.278;18.192;2023-04-03T04:14:12;5.50;;;3.30;;
76795;SDS011;65745;50.278;18.192;2023-04-03T04:16:44;5.50;;;3.20;;
76795;SDS011;65745;50.278;18.192;2023-04-03T04:19:20;10.40;;;4.80;;
76795;SDS011;65745;50.278;18.192;2023-04-03T04:21:52;5.30;;;3.30;;
76795;SDS011;65745;50.278;18.192;2023-04-03T04:24:25;5.70;;;3.20;;
76795;SDS011;65745;50.278;18.192;2023-04-03T04:26:57;7.40;;;3.40;;
76795;SDS011;65745;50.278;18.192;2023-04-03T04:29:31;7.30;;;3.40;;
76795;SDS011;65745;50.278;18.192;2023-04-03T04:32:06;9.20;;;3.80;;
76795;SDS011;65745;50.278;18.192;2023-04-03T04:34:39;4.10;;;2.80;;
76795;SDS011;65745;50.278;18.192;2023-04-03T04:37:11;7.40;;;3.60;;
76795;SDS011;65745;50.278;18.192;2023-04-03T04:39:44;7.60;;;2.90;;
76795;SDS011;65745;50.278;18.192;2023-04-03T04:42:16;6.80;;;2.70;;
76795;SDS011;65745;50.278;18.192;2023-04-03T04:44:49;6.00;;;2.80;;
76795;SDS011;65745;50.278;18.192;2023-04-03T04:47:21;6.50;;;3.50;;
76795;SDS011;65745;50.278;18.192;2023-04-03T04:49:54;6.20;;;3.30;;
76795;SDS011;65745;50.278;18.192;2023-04-03T04:52:26;5.50;;;3.40;;
76795;SDS011;65745;50.278;18.192;2023-04-03T04:54:59;5.90;;;4.00;;
76795;SDS011;65745;50.278;18.192;2023-04-03T04:57:31;7.10;;;3.70;;
76795;SDS011;65745;50.278;18.192;2023-04-03T05:00:06;6.70;;;4.00;;
76795;SDS011;65745;50.278;18.192;2023-04-03T05:02:40;5.10;;;3.50;;
76795;SDS011;65745;50.278;18.192;2023-04-03T05:05:12;6.70;;;3.00;;
76795;SDS011;65745;50.278;18.192;2023-04-03T05:07:45;6.10;;;3.70;;
76795;SDS011;65745;50.278;18.192;2023-04-03T05:10:17;7.90;;;3.30;;
76795;SDS011;65745;50.278;18.192;2023-04-03T05:12:49;4.60;;;3.20;;
76795;SDS011;65745;50.278;18.192;2023-04-03T05:15:22;6.80;;;3.50;;
76795;SDS011;65745;50.278;18.192;2023-04-03T05:17:54;5.90;;;3.00;;
76795;SDS011;65745;50.278;18.192;2023-04-03T05:20:26;6.80;;;3.40;;
76795;SDS011;65745;50.278;18.192;2023-04-03T05:22:59;5.50;;;3.20;;
76795;SDS011;65745;50.278;18.192;2023-04-03T05:25:31;6.00;;;4.00;;
76795;SDS011;65745;50.278;18.192;2023-04-03T05:28:07;6.60;;;3.70;;
76795;SDS011;65745;50.278;18.192;2023-04-03T05:30:39;7.10;;;3.10;;
76795;SDS011;65745;50.278;18.192;2023-04-03T05:33:12;8.00;;;4.40;;
76795;SDS011;65745;50.278;18.192;2023-04-03T05:35:48;6.80;;;3.50;;
76795;SDS011;65745;50.278;18.192;2023-04-03T05:38:25;5.40;;;2.60;;
76795;SDS011;65745;50.278;18.192;2023-04-03T05:40:58;5.70;;;3.00;;
76795;SDS011;65745;50.278;18.192;2023-04-03T05:43:31;5.40;;;4.00;;
76795;SDS011;65745;50.278;18.192;2023-04-03T05:46:09;4.10;;;2.60;;
76795;SDS011;65745;50.278;18.192;2023-04-03T05:51:24;5.90;;;3.00;;
76795;SDS011;65745;50.278;18.192;2023-04-03T05:54:19;3.20;;;2.60;;
76795;SDS011;65745;50.278;18.192;2023-04-03T05:56:58;6.60;;;3.60;;
76795;SDS011;65745;50.278;18.192;2023-04-03T05:59:30;8.30;;;3.60;;
76795;SDS011;65745;50.278;18.192;2023-04-03T06:02:03;5.90;;;3.10;;
76795;SDS011;65745;50.278;18.192;2023-04-03T06:04:35;5.20;;;3.00;;
76795;SDS011;65745;50.278;18.192;2023-04-03T06:07:09;5.90;;;3.40;;
76795;SDS011;65745;50.278;18.192;2023-04-03T06:09:44;6.10;;;2.70;;
76795;SDS011;65745;50.278;18.192;2023-04-03T06:12:17;5.70;;;2.80;;
76795;SDS011;65745;50.278;18.192;2023-04-03T06:14:50;5.00;;;3.80;;
76795;SDS011;65745;50.278;18.192;2023-04-03T06:17:22;4.10;;;2.40;;
76795;SDS011;65745;50.278;18.192;2023-04-03T06:19:56;4.40;;;2.80;;
76795;SDS011;65745;50.278;18.192;2023-04-03T06:22:28;3.40;;;2.50;;
76795;SDS011;65745;50.278;18.192;2023-04-03T06:25:03;4.80;;;2.80;;
76795;SDS011;65745;50.278;18.192;2023-04-03T06:27:36;7.00;;;3.40;;
76795;SDS011;65745;50.278;18.192;2023-04-03T06:30:10;5.20;;;3.10;;
76795;SDS011;65745;50.278;18.192;2023-04-03T06:32:43;5.20;;;3.40;;
76795;SDS011;65745;50.278;18.192;2023-04-03T06:35:15;5.70;;;3.40;;
76795;SDS011;65745;50.278;18.192;2023-04-03T06:37:47;4.90;;;3.00;;
76795;SDS011;65745;50.278;18.192;2023-04-03T06:40:21;5.70;;;2.70;;
76795;SDS011;65745;50.278;18.192;2023-04-03T06:42:55;6.60;;;3.50;;
76795;SDS011;65745;50.278;18.192;2023-04-03T06:45:27;4.70;;;2.80;;
76795;SDS011;65745;50.278;18.192;2023-04-03T06:48:00;5.00;;;2.70;;
76795;SDS011;65745;50.278;18.192;2023-04-03T06:50:32;5.10;;;3.10;;
76795;SDS011;65745;50.278;18.192;2023-04-03T06:53:05;6.70;;;3.50;;
76795;SDS011;65745;50.278;18.192;2023-04-03T06:55:37;3.90;;;2.70;;
76795;SDS011;65745;50.278;18.192;2023-04-03T06:58:10;6.10;;;3.00;;
76795;SDS011;65745;50.278;18.192;2023-04-03T07:00:43;3.90;;;2.60;;
76795;SDS011;65745;50.278;18.192;2023-04-03T07:03:16;4.60;;;3.10;;
76795;SDS011;65745;50.278;18.192;2023-04-03T07:05:51;5.00;;;3.00;;
76795;SDS011;65745;50.278;18.192;2023-04-03T07:08:23;6.00;;;3.10;;
76795;SDS011;65745;50.278;18.192;2023-04-03T07:10:55;7.60;;;3.20;;
76795;SDS011;65745;50.278;18.192;2023-04-03T07:13:27;5.60;;;2.80;;
76795;SDS011;65745;50.278;18.192;2023-04-03T07:15:59;7.00;;;3.20;;
76795;SDS011;65745;50.278;18.192;2023-04-03T07:18:34;5.90;;;3.20;;
76795;SDS011;65745;50.278;18.192;2023-04-03T07:21:06;4.50;;;2.80;;
76795;SDS011;65745;50.278;18.192;2023-04-03T07:23:38;4.10;;;2.70;;
76795;SDS011;65745;50.278;18.192;2023-04-03T07:26:10;5.90;;;3.20;;
76795;SDS011;65745;50.278;18.192;2023-04-03T07:28:42;5.00;;;3.10;;
76795;SDS011;65745;50.278;18.192;2023-04-03T07:31:16;4.90;;;2.60;;
76795;SDS011;65745;50.278;18.192;2023-04-03T07:33:49;4.20;;;2.50;;
76795;SDS011;65745;50.278;18.192;2023-04-03T07:36:21;4.20;;;2.90;;
76795;SDS011;65745;50.278;18.192;2023-04-03T07:38:54;4.90;;;3.00;;
76795;SDS011;65745;50.278;18.192;2023-04-03T07:41:26;4.20;;;2.60;;
76795;SDS011;65745;50.278;18.192;2023-04-03T07:43:59;3.60;;;2.40;;
76795;SDS011;65745;50.278;18.192;2023-04-03T07:46:31;4.10;;;2.70;;
76795;SDS011;65745;50.278;18.192;2023-04-03T07:49:03;4.60;;;3.10;;
76795;SDS011;65745;50.278;18.192;2023-04-03T07:51:36;4.10;;;2.40;;
76795;SDS011;65745;50.278;18.192;2023-04-03T07:54:08;4.80;;;2.70;;
76795;SDS011;65745;50.278;18.192;2023-04-03T07:56:41;4.40;;;2.60;;
76795;SDS011;65745;50.278;18.192;2023-04-03T07:59:14;4.70;;;2.50;;
76795;SDS011;65745;50.278;18.192;2023-04-03T08:01:46;5.40;;;2.70;;
76795;SDS011;65745;50.278;18.192;2023-04-03T08:04:18;4.40;;;2.10;;
76795;SDS011;65745;50.278;18.192;2023-04-03T08:06:51;4.70;;;2.40;;
76795;SDS011;65745;50.278;18.192;2023-04-03T08:09:23;3.60;;;2.60;;
76795;SDS011;65745;50.278;18.192;2023-04-03T08:11:55;3.10;;;2.30;;
76795;SDS011;65745;50.278;18.192;2023-04-03T08:14:29;4.00;;;2.50;;
76795;SDS011;65745;50.278;18.192;2023-04-03T08:17:03;4.20;;;1.90;;
76795;SDS011;65745;50.278;18.192;2023-04-03T08:19:38;2.70;;;2.20;;
76795;SDS011;65745;50.278;18.192;2023-04-03T08:22:11;5.00;;;3.10;;
76795;SDS011;65745;50.278;18.192;2023-04-03T08:24:43;5.10;;;3.30;;
76795;SDS011;65745;50.278;18.192;2023-04-03T08:27:27;3.20;;;2.00;;
76795;SDS011;65745;50.278;18.192;2023-04-03T08:30:02;4.20;;;2.20;;
76795;SDS011;65745;50.278;18.192;2023-04-03T08:32:35;3.60;;;2.10;;
76795;SDS011;65745;50.278;18.192;2023-04-03T08:35:08;3.00;;;1.90;;
76795;SDS011;65745;50.278;18.192;2023-04-03T08:37:41;4.20;;;2.60;;
76795;SDS011;65745;50.278;18.192;2023-04-03T08:40:14;3.20;;;2.10;;
76795;SDS011;65745;50.278;18.192;2023-04-03T08:42:49;2.20;;;1.70;;
76795;SDS011;65745;50.278;18.192;2023-04-03T08:45:36;4.40;;;2.60;;
76795;SDS011;65745;50.278;18.192;2023-04-03T08:48:14;7.10;;;2.70;;
76795;SDS011;65745;50.278;18.192;2023-04-03T08:50:51;3.80;;;2.60;;
76795;SDS011;65745;50.278;18.192;2023-04-03T08:56:02;5.60;;;2.10;;
76795;SDS011;65745;50.278;18.192;2023-04-03T08:58:41;3.10;;;1.70;;
76795;SDS011;65745;50.278;18.192;2023-04-03T09:01:19;3.70;;;2.20;;
76795;SDS011;65745;50.278;18.192;2023-04-03T09:03:55;3.70;;;2.30;;
76795;SDS011;65745;50.278;18.192;2023-04-03T09:06:28;3.90;;;2.10;;
76795;SDS011;65745;50.278;18.192;2023-04-03T09:09:06;3.30;;;2.10;;
76795;SDS011;65745;50.278;18.192;2023-04-03T09:11:47;3.40;;;2.20;;
76795;SDS011;65745;50.278;18.192;2023-04-03T09:14:29;5.90;;;2.90;;
76795;SDS011;65745;50.278;18.192;2023-04-03T09:17:12;4.00;;;2.00;;
76795;SDS011;65745;50.278;18.192;2023-04-03T09:19:54;2.30;;;1.70;;
76795;SDS011;65745;50.278;18.192;2023-04-03T09:22:33;2.50;;;1.60;;
76795;SDS011;65745;50.278;18.192;2023-04-03T09:25:18;4.80;;;2.10;;
76795;SDS011;65745;50.278;18.192;2023-04-03T09:27:54;3.00;;;2.00;;
76795;SDS011;65745;50.278;18.192;2023-04-03T09:30:27;2.90;;;2.20;;
76795;SDS011;65745;50.278;18.192;2023-04-03T09:32:59;2.60;;;1.90;;
76795;SDS011;65745;50.278;18.192;2023-04-03T09:35:32;2.60;;;2.10;;
76795;SDS011;65745;50.278;18.192;2023-04-03T09:38:17;3.90;;;2.40;;
76795;SDS011;65745;50.278;18.192;2023-04-03T09:40:51;3.10;;;1.90;;
76795;SDS011;65745;50.278;18.192;2023-04-03T09:43:38;3.40;;;1.90;;
76795;SDS011;65745;50.278;18.192;2023-04-03T09:46:30;3.20;;;2.10;;
76795;SDS011;65745;50.278;18.192;2023-04-03T09:49:04;4.00;;;2.40;;
76795;SDS011;65745;50.278;18.192;2023-04-03T09:51:42;3.20;;;2.10;;
76795;SDS011;65745;50.278;18.192;2023-04-03T09:57:12;3.10;;;1.90;;
76795;SDS011;65745;50.278;18.192;2023-04-03T09:59:46;3.80;;;2.30;;
76795;SDS011;65745;50.278;18.192;2023-04-03T10:02:35;2.90;;;2.10;;
76795;SDS011;65745;50.278;18.192;2023-04-03T10:08:10;3.50;;;2.40;;
76795;SDS011;65745;50.278;18.192;2023-04-03T10:11:15;4.10;;;2.40;;
76795;SDS011;65745;50.278;18.192;2023-04-03T10:13:52;6.20;;;2.90;;
76795;SDS011;65745;50.278;18.192;2023-04-03T10:16:32;6.20;;;4.70;;
76795;SDS011;65745;50.278;18.192;2023-04-03T10:22:18;6.70;;;3.60;;
76795;SDS011;65745;50.278;18.192;2023-04-03T10:25:01;10.70;;;5.30;;
76795;SDS011;65745;50.278;18.192;2023-04-03T10:27:44;5.60;;;3.20;;
76795;SDS011;65745;50.278;18.192;2023-04-03T10:30:29;10.10;;;5.90;;
76795;SDS011;65745;50.278;18.192;2023-04-03T10:33:11;19.80;;;8.50;;
76795;SDS011;65745;50.278;18.192;2023-04-03T10:35:53;20.40;;;8.30;;
76795;SDS011;65745;50.278;18.192;2023-04-03T10:38:41;26.00;;;8.20;;
76795;SDS011;65745;50.278;18.192;2023-04-03T10:41:21;13.70;;;4.80;;
76795;SDS011;65745;50.278;18.192;2023-04-03T10:44:05;11.40;;;4.90;;
76795;SDS011;65745;50.278;18.192;2023-04-03T10:46:49;17.90;;;6.70;;
76795;SDS011;65745;50.278;18.192;2023-04-03T10:49:28;16.00;;;5.20;;
76795;SDS011;65745;50.278;18.192;2023-04-03T10:52:22;6.70;;;2.80;;
76795;SDS011;65745;50.278;18.192;2023-04-03T10:55:00;10.90;;;4.20;;
76795;SDS011;65745;50.278;18.192;2023-04-03T10:57:37;31.00;;;10.50;;
76795;SDS011;65745;50.278;18.192;2023-04-03T11:00:15;9.90;;;4.00;;
76795;SDS011;65745;50.278;18.192;2023-04-03T11:02:52;20.60;;;6.60;;
76795;SDS011;65745;50.278;18.192;2023-04-03T11:05:29;17.00;;;6.80;;
76795;SDS011;65745;50.278;18.192;2023-04-03T11:08:08;18.70;;;6.80;;
76795;SDS011;65745;50.278;18.192;2023-04-03T11:10:48;20.60;;;6.60;;
76795;SDS011;65745;50.278;18.192;2023-04-03T11:13:24;36.10;;;16.50;;
76795;SDS011;65745;50.278;18.192;2023-04-03T11:16:03;12.80;;;5.70;;
76795;SDS011;65745;50.278;18.192;2023-04-03T11:18:37;26.90;;;9.50;;
76795;SDS011;65745;50.278;18.192;2023-04-03T11:21:14;31.20;;;14.70;;
76795;SDS011;65745;50.278;18.192;2023-04-03T11:23:52;22.10;;;9.90;;
76795;SDS011;65745;50.278;18.192;2023-04-03T11:26:29;23.20;;;8.20;;
76795;SDS011;65745;50.278;18.192;2023-04-03T11:29:06;23.20;;;8.50;;
76795;SDS011;65745;50.278;18.192;2023-04-03T11:32:14;13.70;;;4.90;;
76795;SDS011;65745;50.278;18.192;2023-04-03T11:35:06;13.00;;;5.20;;
76795;SDS011;65745;50.278;18.192;2023-04-03T11:37:40;12.30;;;5.20;;
76795;SDS011;65745;50.278;18.192;2023-04-03T11:40:21;5.60;;;3.50;;
76795;SDS011;65745;50.278;18.192;2023-04-03T11:43:02;9.70;;;5.00;;
76795;SDS011;65745;50.278;18.192;2023-04-03T11:45:40;6.80;;;3.40;;
76795;SDS011;65745;50.278;18.192;2023-04-03T11:48:47;15.70;;;6.80;;
76795;SDS011;65745;50.278;18.192;2023-04-03T11:54:36;14.60;;;7.00;;
76795;SDS011;65745;50.278;18.192;2023-04-03T11:57:30;8.80;;;5.70;;
76795;SDS011;65745;50.278;18.192;2023-04-03T12:00:49;16.30;;;13.00;;
76795;SDS011;65745;50.278;18.192;2023-04-03T12:12:35;4.50;;;2.70;;
76795;SDS011;65745;50.278;18.192;2023-04-03T12:24:39;9.90;;;6.50;;
76795;SDS011;65745;50.278;18.192;2023-04-03T12:30:20;11.00;;;9.90;;
76795;SDS011;65745;50.278;18.192;2023-04-03T12:33:12;13.90;;;10.80;;
76795;SDS011;65745;50.278;18.192;2023-04-03T12:35:58;8.30;;;3.80;;
76795;SDS011;65745;50.278;18.192;2023-04-03T12:38:52;10.80;;;5.60;;
76795;SDS011;65745;50.278;18.192;2023-04-03T12:41:43;4.80;;;2.70;;
76795;SDS011;65745;50.278;18.192;2023-04-03T12:44:30;4.70;;;3.10;;
76795;SDS011;65745;50.278;18.192;2023-04-03T12:47:22;4.20;;;2.40;;
76795;SDS011;65745;50.278;18.192;2023-04-03T12:49:57;6.10;;;2.50;;
76795;SDS011;65745;50.278;18.192;2023-04-03T12:52:32;4.80;;;2.40;;
76795;SDS011;65745;50.278;18.192;2023-04-03T12:55:15;3.10;;;1.90;;
76795;SDS011;65745;50.278;18.192;2023-04-03T12:57:50;4.30;;;2.10;;
76795;SDS011;65745;50.278;18.192;2023-04-03T13:00:25;3.20;;;2.40;;
76795;SDS011;65745;50.278;18.192;2023-04-03T13:03:02;3.90;;;2.20;;
76795;SDS011;65745;50.278;18.192;2023-04-03T13:05:36;2.90;;;1.90;;
76795;SDS011;65745;50.278;18.192;2023-04-03T13:08:11;4.10;;;2.60;;
76795;SDS011;65745;50.278;18.192;2023-04-03T13:10:48;4.10;;;2.50;;
76795;SDS011;65745;50.278;18.192;2023-04-03T13:13:25;3.10;;;2.10;;
76795;SDS011;65745;50.278;18.192;2023-04-03T13:15:58;7.70;;;4.40;;
76795;SDS011;65745;50.278;18.192;2023-04-03T13:18:38;9.40;;;4.30;;
76795;SDS011;65745;50.278;18.192;2023-04-03T13:21:13;6.30;;;3.40;;
76795;SDS011;65745;50.278;18.192;2023-04-03T13:23:51;7.60;;;3.20;;
76795;SDS011;65745;50.278;18.192;2023-04-03T13:26:42;13.40;;;5.90;;
76795;SDS011;65745;50.278;18.192;2023-04-03T13:29:21;9.60;;;4.60;;
76795;SDS011;65745;50.278;18.192;2023-04-03T13:32:00;9.90;;;4.70;;
76795;SDS011;65745;50.278;18.192;2023-04-03T13:34:37;10.30;;;5.30;;
76795;SDS011;65745;50.278;18.192;2023-04-03T13:37:22;7.80;;;3.90;;
76795;SDS011;65745;50.278;18.192;2023-04-03T13:40:01;15.50;;;6.50;;
76795;SDS011;65745;50.278;18.192;2023-04-03T13:42:41;8.90;;;4.30;;
76795;SDS011;65745;50.278;18.192;2023-04-03T13:45:18;12.50;;;4.90;;
76795;SDS011;65745;50.278;18.192;2023-04-03T13:47:53;19.30;;;7.60;;
76795;SDS011;65745;50.278;18.192;2023-04-03T13:50:53;16.00;;;7.30;;
76795;SDS011;65745;50.278;18.192;2023-04-03T13:53:28;15.30;;;6.00;;
76795;SDS011;65745;50.278;18.192;2023-04-03T13:56:07;15.30;;;6.60;;
76795;SDS011;65745;50.278;18.192;2023-04-03T13:58:54;28.50;;;12.40;;
76795;SDS011;65745;50.278;18.192;2023-04-03T14:04:12;14.00;;;7.10;;
76795;SDS011;65745;50.278;18.192;2023-04-03T14:06:49;30.40;;;11.00;;
76795;SDS011;65745;50.278;18.192;2023-04-03T14:09:23;32.10;;;11.80;;
76795;SDS011;65745;50.278;18.192;2023-04-03T14:11:58;25.60;;;10.10;;
76795;SDS011;65745;50.278;18.192;2023-04-03T14:14:36;39.20;;;16.10;;
76795;SDS011;65745;50.278;18.192;2023-04-03T14:17:12;19.00;;;8.50;;
76795;SDS011;65745;50.278;18.192;2023-04-03T14:19:54;30.50;;;14.30;;
76795;SDS011;65745;50.278;18.192;2023-04-03T14:22:28;39.30;;;17.10;;
76795;SDS011;65745;50.278;18.192;2023-04-03T14:25:02;19.60;;;9.10;;
76795;SDS011;65745;50.278;18.192;2023-04-03T14:27:36;64.20;;;28.50;;
76795;SDS011;65745;50.278;18.192;2023-04-03T14:30:12;145.30;;;64.10;;
76795;SDS011;65745;50.278;18.192;2023-04-03T14:32:47;96.10;;;46.20;;
76795;SDS011;65745;50.278;18.192;2023-04-03T14:35:21;112.60;;;54.10;;
76795;SDS011;65745;50.278;18.192;2023-04-03T14:37:54;54.70;;;29.90;;
76795;SDS011;65745;50.278;18.192;2023-04-03T14:40:27;101.70;;;50.20;;
76795;SDS011;65745;50.278;18.192;2023-04-03T14:42:59;74.40;;;34.70;;
76795;SDS011;65745;50.278;18.192;2023-04-03T14:45:31;98.80;;;43.50;;
76795;SDS011;65745;50.278;18.192;2023-04-03T14:48:04;76.10;;;35.90;;
76795;SDS011;65745;50.278;18.192;2023-04-03T14:50:40;39.10;;;21.50;;
76795;SDS011;65745;50.278;18.192;2023-04-03T14:53:26;47.20;;;24.40;;
76795;SDS011;65745;50.278;18.192;2023-04-03T14:56:12;47.70;;;23.70;;
76795;SDS011;65745;50.278;18.192;2023-04-03T14:58:47;38.50;;;22.70;;
76795;SDS011;65745;50.278;18.192;2023-04-03T15:01:23;37.00;;;24.80;;
76795;SDS011;65745;50.278;18.192;2023-04-03T15:03:55;17.90;;;14.10;;
76795;SDS011;65745;50.278;18.192;2023-04-03T15:06:28;19.20;;;15.00;;
76795;SDS011;65745;50.278;18.192;2023-04-03T15:09:00;13.00;;;9.30;;
76795;SDS011;65745;50.278;18.192;2023-04-03T15:11:33;29.50;;;26.60;;
76795;SDS011;65745;50.278;18.192;2023-04-03T15:14:05;55.50;;;49.70;;
76795;SDS011;65745;50.278;18.192;2023-04-03T15:16:39;22.80;;;18.20;;
76795;SDS011;65745;50.278;18.192;2023-04-03T15:19:12;13.40;;;10.60;;
76795;SDS011;65745;50.278;18.192;2023-04-03T15:21:46;11.20;;;8.30;;
76795;SDS011;65745;50.278;18.192;2023-04-03T15:24:18;13.70;;;8.60;;
76795;SDS011;65745;50.278;18.192;2023-04-03T15:26:50;12.00;;;7.00;;
76795;SDS011;65745;50.278;18.192;2023-04-03T15:29:23;9.60;;;6.10;;
76795;SDS011;65745;50.278;18.192;2023-04-03T15:31:56;10.60;;;6.40;;
76795;SDS011;65745;50.278;18.192;2023-04-03T15:34:28;9.20;;;5.80;;
76795;SDS011;65745;50.278;18.192;2023-04-03T15:37:01;10.00;;;5.30;;
76795;SDS011;65745;50.278;18.192;2023-04-03T15:39:33;7.10;;;4.30;;
76795;SDS011;65745;50.278;18.192;2023-04-03T15:42:05;6.80;;;4.00;;
76795;SDS011;65745;50.278;18.192;2023-04-03T15:44:38;14.60;;;8.50;;
76795;SDS011;65745;50.278;18.192;2023-04-03T15:47:10;54.40;;;30.90;;
76795;SDS011;65745;50.278;18.192;2023-04-03T15:49:44;56.40;;;32.10;;
76795;SDS011;65745;50.278;18.192;2023-04-03T15:52:16;34.00;;;19.90;;
76795;SDS011;65745;50.278;18.192;2023-04-03T15:54:48;17.10;;;9.10;;
76795;SDS011;65745;50.278;18.192;2023-04-03T15:57:21;13.10;;;5.80;;
76795;SDS011;65745;50.278;18.192;2023-04-03T15:59:55;11.50;;;7.10;;